sensor_id;sensor_type;location;lat;lon;timestamp;P1;durP1;ratioP1;P2;durP2;ratioP2
82977;SDS011;72778;49.978;8.338;2023-09-18T00:00:41;6.18;;;1.40;;
82977;SDS011;72778;49.978;8.338;2023-09-18T00:03:07;7.15;;;1.80;;
82977;SDS011;72778;49.978;8.338;2023-09-18T00:07:59;6.45;;;1.60;;
82977;SDS011;72778;49.978;8.338;2023-09-18T00:10:27;8.43;;;1.90;;
82977;SDS011;72778;49.978;8.338;2023-09-18T00:12:54;11.07;;;2.05;;
82977;SDS011;72778;49.978;8.338;2023-09-18T00:15:20;8.90;;;1.83;;
82977;SDS011;72778;49.978;8.338;2023-09-18T00:17:46;8.80;;;1.65;;
82977;SDS011;72778;49.978;8.338;2023-09-18T00:20:12;7.60;;;1.95;;
82977;SDS011;72778;49.978;8.338;2023-09-18T00:25:04;7.15;;;1.80;;
82977;SDS011;72778;49.978;8.338;2023-09-18T00:27:30;7.85;;;1.80;;
82977;SDS011;72778;49.978;8.338;2023-09-18T00:29:57;4.72;;;1.73;;
82977;SDS011;72778;49.978;8.338;2023-09-18T00:32:23;6.65;;;1.70;;
82977;SDS011;72778;49.978;8.338;2023-09-18T00:34:49;9.20;;;1.50;;
82977;SDS011;72778;49.978;8.338;2023-09-18T00:37:15;9.45;;;1.33;;
82977;SDS011;72778;49.978;8.338;2023-09-18T00:39:41;8.60;;;1.55;;
82977;SDS011;72778;49.978;8.338;2023-09-18T00:42:09;7.13;;;1.50;;
82977;SDS011;72778;49.978;8.338;2023-09-18T00:44:38;7.78;;;1.70;;
82977;SDS011;72778;49.978;8.338;2023-09-18T00:47:04;9.77;;;2.00;;
82977;SDS011;72778;49.978;8.338;2023-09-18T00:49:30;9.52;;;1.95;;
82977;SDS011;72778;49.978;8.338;2023-09-18T00:51:58;12.20;;;2.10;;
82977;SDS011;72778;49.978;8.338;2023-09-18T00:54:24;13.10;;;2.25;;
82977;SDS011;72778;49.978;8.338;2023-09-18T00:56:50;10.68;;;1.88;;
82977;SDS011;72778;49.978;8.338;2023-09-18T00:59:19;11.13;;;1.90;;
82977;SDS011;72778;49.978;8.338;2023-09-18T01:01:45;14.27;;;2.17;;
82977;SDS011;72778;49.978;8.338;2023-09-18T01:04:12;11.45;;;2.20;;
82977;SDS011;72778;49.978;8.338;2023-09-18T01:06:38;14.90;;;1.52;;
82977;SDS011;72778;49.978;8.338;2023-09-18T01:09:04;10.65;;;1.85;;
82977;SDS011;72778;49.978;8.338;2023-09-18T01:11:45;9.23;;;1.63;;
82977;SDS011;72778;49.978;8.338;2023-09-18T01:16:58;9.90;;;1.83;;
82977;SDS011;72778;49.978;8.338;2023-09-18T01:19:40;13.55;;;2.20;;
82977;SDS011;72778;49.978;8.338;2023-09-18T01:22:06;9.18;;;1.90;;
82977;SDS011;72778;49.978;8.338;2023-09-18T01:24:33;6.15;;;1.52;;
82977;SDS011;72778;49.978;8.338;2023-09-18T01:26:59;10.07;;;1.65;;
82977;SDS011;72778;49.978;8.338;2023-09-18T01:29:25;8.75;;;2.10;;
82977;SDS011;72778;49.978;8.338;2023-09-18T01:31:51;10.15;;;1.77;;
82977;SDS011;72778;49.978;8.338;2023-09-18T01:34:18;13.55;;;1.88;;
82977;SDS011;72778;49.978;8.338;2023-09-18T01:36:45;12.90;;;1.90;;
82977;SDS011;72778;49.978;8.338;2023-09-18T01:41:38;7.95;;;1.83;;
82977;SDS011;72778;49.978;8.338;2023-09-18T01:44:04;8.45;;;2.10;;
82977;SDS011;72778;49.978;8.338;2023-09-18T01:46:30;7.72;;;1.63;;
82977;SDS011;72778;49.978;8.338;2023-09-18T01:48:57;7.65;;;1.92;;
82977;SDS011;72778;49.978;8.338;2023-09-18T01:51:23;7.30;;;1.48;;
82977;SDS011;72778;49.978;8.338;2023-09-18T01:53:50;12.48;;;1.80;;
82977;SDS011;72778;49.978;8.338;2023-09-18T01:56:15;10.82;;;1.80;;
82977;SDS011;72778;49.978;8.338;2023-09-18T01:58:41;10.43;;;1.98;;
82977;SDS011;72778;49.978;8.338;2023-09-18T02:01:07;9.82;;;1.77;;
82977;SDS011;72778;49.978;8.338;2023-09-18T02:03:33;8.13;;;1.38;;
82977;SDS011;72778;49.978;8.338;2023-09-18T02:05:59;8.20;;;1.60;;
82977;SDS011;72778;49.978;8.338;2023-09-18T02:08:25;8.00;;;1.70;;
82977;SDS011;72778;49.978;8.338;2023-09-18T02:10:51;9.65;;;1.50;;
82977;SDS011;72778;49.978;8.338;2023-09-18T02:13:17;7.88;;;1.70;;
82977;SDS011;72778;49.978;8.338;2023-09-18T02:15:43;10.25;;;1.55;;
82977;SDS011;72778;49.978;8.338;2023-09-18T02:18:09;8.40;;;1.50;;
82977;SDS011;72778;49.978;8.338;2023-09-18T02:20:41;6.78;;;1.63;;
82977;SDS011;72778;49.978;8.338;2023-09-18T02:23:09;6.30;;;1.55;;
82977;SDS011;72778;49.978;8.338;2023-09-18T02:25:35;11.88;;;1.50;;
82977;SDS011;72778;49.978;8.338;2023-09-18T02:28:01;9.68;;;1.67;;
82977;SDS011;72778;49.978;8.338;2023-09-18T02:30:27;9.25;;;1.73;;
82977;SDS011;72778;49.978;8.338;2023-09-18T02:32:53;7.97;;;1.40;;
82977;SDS011;72778;49.978;8.338;2023-09-18T02:35:20;5.43;;;1.40;;
82977;SDS011;72778;49.978;8.338;2023-09-18T02:37:46;8.55;;;1.63;;
82977;SDS011;72778;49.978;8.338;2023-09-18T02:40:12;7.63;;;1.70;;
82977;SDS011;72778;49.978;8.338;2023-09-18T02:42:38;4.85;;;1.33;;
82977;SDS011;72778;49.978;8.338;2023-09-18T02:45:04;9.38;;;1.65;;
82977;SDS011;72778;49.978;8.338;2023-09-18T02:47:30;7.18;;;1.60;;
82977;SDS011;72778;49.978;8.338;2023-09-18T02:49:57;7.10;;;1.70;;
82977;SDS011;72778;49.978;8.338;2023-09-18T02:52:23;8.77;;;1.75;;
82977;SDS011;72778;49.978;8.338;2023-09-18T02:54:48;7.65;;;1.33;;
82977;SDS011;72778;49.978;8.338;2023-09-18T02:57:14;8.25;;;1.52;;
82977;SDS011;72778;49.978;8.338;2023-09-18T02:59:40;9.45;;;1.52;;
82977;SDS011;72778;49.978;8.338;2023-09-18T03:02:06;8.38;;;1.52;;
82977;SDS011;72778;49.978;8.338;2023-09-18T03:04:32;8.30;;;2.15;;
82977;SDS011;72778;49.978;8.338;2023-09-18T03:06:58;6.80;;;1.70;;
82977;SDS011;72778;49.978;8.338;2023-09-18T03:09:24;6.80;;;1.40;;
82977;SDS011;72778;49.978;8.338;2023-09-18T03:11:50;7.70;;;1.38;;
82977;SDS011;72778;49.978;8.338;2023-09-18T03:14:16;9.20;;;1.33;;
82977;SDS011;72778;49.978;8.338;2023-09-18T03:16:42;8.55;;;1.30;;
82977;SDS011;72778;49.978;8.338;2023-09-18T03:19:09;6.43;;;1.58;;
82977;SDS011;72778;49.978;8.338;2023-09-18T03:21:35;9.25;;;1.27;;
82977;SDS011;72778;49.978;8.338;2023-09-18T03:24:01;5.95;;;1.23;;
82977;SDS011;72778;49.978;8.338;2023-09-18T03:26:27;7.15;;;1.33;;
82977;SDS011;72778;49.978;8.338;2023-09-18T03:28:53;7.47;;;1.23;;
82977;SDS011;72778;49.978;8.338;2023-09-18T03:31:19;6.28;;;1.50;;
82977;SDS011;72778;49.978;8.338;2023-09-18T03:33:45;6.32;;;1.40;;
82977;SDS011;72778;49.978;8.338;2023-09-18T03:36:11;7.63;;;1.60;;
82977;SDS011;72778;49.978;8.338;2023-09-18T03:38:38;6.13;;;1.63;;
82977;SDS011;72778;49.978;8.338;2023-09-18T03:41:04;8.15;;;1.67;;
82977;SDS011;72778;49.978;8.338;2023-09-18T03:43:30;6.88;;;1.50;;
82977;SDS011;72778;49.978;8.338;2023-09-18T03:46:06;6.88;;;1.42;;
82977;SDS011;72778;49.978;8.338;2023-09-18T03:48:32;5.55;;;1.17;;
82977;SDS011;72778;49.978;8.338;2023-09-18T03:51:02;5.43;;;1.20;;
82977;SDS011;72778;49.978;8.338;2023-09-18T03:53:29;6.75;;;1.33;;
82977;SDS011;72778;49.978;8.338;2023-09-18T03:55:55;7.38;;;1.60;;
82977;SDS011;72778;49.978;8.338;2023-09-18T03:58:21;6.15;;;1.38;;
82977;SDS011;72778;49.978;8.338;2023-09-18T04:00:47;5.30;;;0.93;;
82977;SDS011;72778;49.978;8.338;2023-09-18T04:03:14;6.38;;;1.40;;
82977;SDS011;72778;49.978;8.338;2023-09-18T04:05:40;6.68;;;1.48;;
82977;SDS011;72778;49.978;8.338;2023-09-18T04:08:06;5.28;;;1.15;;
82977;SDS011;72778;49.978;8.338;2023-09-18T04:10:32;5.47;;;1.23;;
82977;SDS011;72778;49.978;8.338;2023-09-18T04:15:24;5.57;;;1.30;;
82977;SDS011;72778;49.978;8.338;2023-09-18T04:17:50;7.32;;;1.20;;
82977;SDS011;72778;49.978;8.338;2023-09-18T04:20:16;5.85;;;1.60;;
82977;SDS011;72778;49.978;8.338;2023-09-18T04:22:43;6.97;;;1.33;;
82977;SDS011;72778;49.978;8.338;2023-09-18T04:25:09;5.90;;;1.23;;
82977;SDS011;72778;49.978;8.338;2023-09-18T04:27:35;6.93;;;1.38;;
82977;SDS011;72778;49.978;8.338;2023-09-18T04:30:01;5.30;;;1.30;;
82977;SDS011;72778;49.978;8.338;2023-09-18T04:34:54;4.82;;;1.08;;
82977;SDS011;72778;49.978;8.338;2023-09-18T04:37:20;10.15;;;1.45;;
82977;SDS011;72778;49.978;8.338;2023-09-18T04:39:46;7.20;;;1.13;;
82977;SDS011;72778;49.978;8.338;2023-09-18T04:42:12;6.85;;;1.25;;
82977;SDS011;72778;49.978;8.338;2023-09-18T04:44:38;7.30;;;1.50;;
82977;SDS011;72778;49.978;8.338;2023-09-18T04:47:04;7.35;;;1.30;;
82977;SDS011;72778;49.978;8.338;2023-09-18T04:49:31;6.78;;;1.30;;
82977;SDS011;72778;49.978;8.338;2023-09-18T04:51:58;6.63;;;0.93;;
82977;SDS011;72778;49.978;8.338;2023-09-18T04:54:24;5.60;;;1.35;;
82977;SDS011;72778;49.978;8.338;2023-09-18T04:56:50;5.05;;;1.27;;
82977;SDS011;72778;49.978;8.338;2023-09-18T04:59:16;5.47;;;1.00;;
82977;SDS011;72778;49.978;8.338;2023-09-18T05:01:41;9.77;;;1.52;;
82977;SDS011;72778;49.978;8.338;2023-09-18T05:04:09;5.82;;;1.38;;
82977;SDS011;72778;49.978;8.338;2023-09-18T05:06:35;5.18;;;1.05;;
82977;SDS011;72778;49.978;8.338;2023-09-18T05:09:03;5.85;;;1.23;;
82977;SDS011;72778;49.978;8.338;2023-09-18T05:11:30;5.28;;;1.35;;
82977;SDS011;72778;49.978;8.338;2023-09-18T05:13:56;9.15;;;1.30;;
82977;SDS011;72778;49.978;8.338;2023-09-18T05:16:22;7.60;;;1.38;;
82977;SDS011;72778;49.978;8.338;2023-09-18T05:18:48;5.80;;;1.20;;
82977;SDS011;72778;49.978;8.338;2023-09-18T05:21:14;5.63;;;1.20;;
82977;SDS011;72778;49.978;8.338;2023-09-18T05:23:40;6.30;;;1.30;;
82977;SDS011;72778;49.978;8.338;2023-09-18T05:26:06;8.55;;;1.20;;
82977;SDS011;72778;49.978;8.338;2023-09-18T05:28:32;4.75;;;1.10;;
82977;SDS011;72778;49.978;8.338;2023-09-18T05:30:57;7.32;;;1.55;;
82977;SDS011;72778;49.978;8.338;2023-09-18T05:33:23;8.70;;;1.27;;
82977;SDS011;72778;49.978;8.338;2023-09-18T05:35:49;4.38;;;1.02;;
82977;SDS011;72778;49.978;8.338;2023-09-18T05:38:16;8.05;;;1.17;;
82977;SDS011;72778;49.978;8.338;2023-09-18T05:40:43;7.18;;;1.13;;
82977;SDS011;72778;49.978;8.338;2023-09-18T05:43:10;7.60;;;1.20;;
82977;SDS011;72778;49.978;8.338;2023-09-18T05:45:36;5.80;;;1.00;;
82977;SDS011;72778;49.978;8.338;2023-09-18T05:48:03;5.25;;;1.13;;
82977;SDS011;72778;49.978;8.338;2023-09-18T05:50:30;5.80;;;1.30;;
82977;SDS011;72778;49.978;8.338;2023-09-18T05:52:57;4.97;;;1.00;;
82977;SDS011;72778;49.978;8.338;2023-09-18T05:55:29;6.25;;;1.45;;
82977;SDS011;72778;49.978;8.338;2023-09-18T05:57:55;6.55;;;1.25;;
82977;SDS011;72778;49.978;8.338;2023-09-18T06:00:22;5.07;;;1.13;;
82977;SDS011;72778;49.978;8.338;2023-09-18T06:02:49;6.00;;;1.10;;
82977;SDS011;72778;49.978;8.338;2023-09-18T06:05:16;4.43;;;1.17;;
82977;SDS011;72778;49.978;8.338;2023-09-18T06:10:09;3.92;;;0.80;;
82977;SDS011;72778;49.978;8.338;2023-09-18T06:15:01;4.78;;;0.98;;
82977;SDS011;72778;49.978;8.338;2023-09-18T06:17:29;6.10;;;1.15;;
82977;SDS011;72778;49.978;8.338;2023-09-18T06:19:55;5.00;;;1.20;;
82977;SDS011;72778;49.978;8.338;2023-09-18T06:22:21;6.55;;;1.10;;
82977;SDS011;72778;49.978;8.338;2023-09-18T06:24:47;7.00;;;1.23;;
82977;SDS011;72778;49.978;8.338;2023-09-18T06:27:13;9.55;;;1.60;;
82977;SDS011;72778;49.978;8.338;2023-09-18T06:29:39;5.13;;;1.05;;
82977;SDS011;72778;49.978;8.338;2023-09-18T06:32:06;5.93;;;1.02;;
82977;SDS011;72778;49.978;8.338;2023-09-18T06:34:32;6.15;;;1.13;;
82977;SDS011;72778;49.978;8.338;2023-09-18T06:36:58;4.30;;;0.90;;
82977;SDS011;72778;49.978;8.338;2023-09-18T06:39:24;5.95;;;1.13;;
82977;SDS011;72778;49.978;8.338;2023-09-18T06:41:51;5.15;;;0.82;;
82977;SDS011;72778;49.978;8.338;2023-09-18T06:44:17;6.03;;;1.30;;
82977;SDS011;72778;49.978;8.338;2023-09-18T06:46:43;5.30;;;1.02;;
82977;SDS011;72778;49.978;8.338;2023-09-18T06:49:08;4.80;;;0.95;;
82977;SDS011;72778;49.978;8.338;2023-09-18T06:51:34;5.50;;;1.23;;
82977;SDS011;72778;49.978;8.338;2023-09-18T06:54:00;6.90;;;1.13;;
82977;SDS011;72778;49.978;8.338;2023-09-18T06:56:27;6.25;;;0.93;;
82977;SDS011;72778;49.978;8.338;2023-09-18T07:01:20;5.65;;;0.95;;
82977;SDS011;72778;49.978;8.338;2023-09-18T07:03:46;6.22;;;1.00;;
82977;SDS011;72778;49.978;8.338;2023-09-18T07:08:38;5.10;;;1.05;;
82977;SDS011;72778;49.978;8.338;2023-09-18T07:11:04;5.10;;;1.10;;
82977;SDS011;72778;49.978;8.338;2023-09-18T07:13:30;5.18;;;1.08;;
82977;SDS011;72778;49.978;8.338;2023-09-18T07:15:56;8.18;;;1.02;;
82977;SDS011;72778;49.978;8.338;2023-09-18T07:18:21;6.85;;;1.00;;
82977;SDS011;72778;49.978;8.338;2023-09-18T07:20:47;4.57;;;1.00;;
82977;SDS011;72778;49.978;8.338;2023-09-18T07:23:13;4.93;;;0.88;;
82977;SDS011;72778;49.978;8.338;2023-09-18T07:25:39;6.47;;;0.90;;
82977;SDS011;72778;49.978;8.338;2023-09-18T07:28:08;4.25;;;1.00;;
82977;SDS011;72778;49.978;8.338;2023-09-18T07:30:38;4.75;;;1.15;;
82977;SDS011;72778;49.978;8.338;2023-09-18T07:33:04;5.75;;;0.73;;
82977;SDS011;72778;49.978;8.338;2023-09-18T07:35:30;5.90;;;1.10;;
82977;SDS011;72778;49.978;8.338;2023-09-18T07:37:56;4.75;;;0.80;;
82977;SDS011;72778;49.978;8.338;2023-09-18T07:40:22;5.00;;;1.17;;
82977;SDS011;72778;49.978;8.338;2023-09-18T07:42:48;6.38;;;0.85;;
82977;SDS011;72778;49.978;8.338;2023-09-18T07:45:14;4.82;;;0.93;;
82977;SDS011;72778;49.978;8.338;2023-09-18T07:47:40;6.45;;;1.33;;
82977;SDS011;72778;49.978;8.338;2023-09-18T07:50:06;4.25;;;0.93;;
82977;SDS011;72778;49.978;8.338;2023-09-18T07:52:32;5.07;;;0.85;;
82977;SDS011;72778;49.978;8.338;2023-09-18T07:54:58;5.50;;;0.90;;
82977;SDS011;72778;49.978;8.338;2023-09-18T07:59:53;6.25;;;1.30;;
82977;SDS011;72778;49.978;8.338;2023-09-18T08:02:19;6.30;;;1.13;;
82977;SDS011;72778;49.978;8.338;2023-09-18T08:04:46;5.75;;;1.05;;
82977;SDS011;72778;49.978;8.338;2023-09-18T08:07:12;8.35;;;1.08;;
82977;SDS011;72778;49.978;8.338;2023-09-18T08:09:38;10.88;;;1.33;;
82977;SDS011;72778;49.978;8.338;2023-09-18T08:12:07;7.40;;;1.10;;
82977;SDS011;72778;49.978;8.338;2023-09-18T08:14:34;5.38;;;1.33;;
82977;SDS011;72778;49.978;8.338;2023-09-18T08:17:01;6.28;;;0.88;;
82977;SDS011;72778;49.978;8.338;2023-09-18T08:19:29;7.25;;;0.95;;
82977;SDS011;72778;49.978;8.338;2023-09-18T08:21:57;5.82;;;1.08;;
82977;SDS011;72778;49.978;8.338;2023-09-18T08:24:24;7.68;;;1.08;;
82977;SDS011;72778;49.978;8.338;2023-09-18T08:26:50;9.18;;;1.15;;
82977;SDS011;72778;49.978;8.338;2023-09-18T08:29:16;8.23;;;1.23;;
82977;SDS011;72778;49.978;8.338;2023-09-18T08:31:42;6.55;;;1.10;;
82977;SDS011;72778;49.978;8.338;2023-09-18T08:34:08;6.70;;;1.08;;
82977;SDS011;72778;49.978;8.338;2023-09-18T08:36:34;6.28;;;1.00;;
82977;SDS011;72778;49.978;8.338;2023-09-18T08:39:00;9.60;;;1.08;;
82977;SDS011;72778;49.978;8.338;2023-09-18T08:41:30;7.57;;;1.20;;
82977;SDS011;72778;49.978;8.338;2023-09-18T08:43:59;3.97;;;0.88;;
82977;SDS011;72778;49.978;8.338;2023-09-18T08:46:25;12.88;;;1.48;;
82977;SDS011;72778;49.978;8.338;2023-09-18T08:48:51;12.25;;;1.48;;
82977;SDS011;72778;49.978;8.338;2023-09-18T08:51:18;17.50;;;1.65;;
82977;SDS011;72778;49.978;8.338;2023-09-18T08:53:44;18.58;;;1.60;;
82977;SDS011;72778;49.978;8.338;2023-09-18T08:56:11;13.75;;;1.10;;
82977;SDS011;72778;49.978;8.338;2023-09-18T08:58:40;12.60;;;1.40;;
82977;SDS011;72778;49.978;8.338;2023-09-18T09:01:08;12.85;;;1.60;;
82977;SDS011;72778;49.978;8.338;2023-09-18T09:03:37;12.68;;;1.70;;
82977;SDS011;72778;49.978;8.338;2023-09-18T09:08:29;18.10;;;1.33;;
82977;SDS011;72778;49.978;8.338;2023-09-18T09:10:55;10.90;;;1.45;;
82977;SDS011;72778;49.978;8.338;2023-09-18T09:13:23;25.45;;;2.20;;
82977;SDS011;72778;49.978;8.338;2023-09-18T09:15:51;8.30;;;1.17;;
82977;SDS011;72778;49.978;8.338;2023-09-18T09:18:19;16.42;;;1.70;;
82977;SDS011;72778;49.978;8.338;2023-09-18T09:20:58;17.33;;;1.88;;
82977;SDS011;72778;49.978;8.338;2023-09-18T09:23:28;15.95;;;1.33;;
82977;SDS011;72778;49.978;8.338;2023-09-18T09:26:00;13.43;;;1.20;;
82977;SDS011;72778;49.978;8.338;2023-09-18T09:28:37;11.45;;;1.00;;
82977;SDS011;72778;49.978;8.338;2023-09-18T09:31:03;17.40;;;1.20;;
82977;SDS011;72778;49.978;8.338;2023-09-18T09:33:29;15.45;;;1.42;;
82977;SDS011;72778;49.978;8.338;2023-09-18T09:35:56;12.43;;;1.13;;
82977;SDS011;72778;49.978;8.338;2023-09-18T09:38:29;13.43;;;1.02;;
82977;SDS011;72778;49.978;8.338;2023-09-18T09:40:59;10.43;;;0.90;;
82977;SDS011;72778;49.978;8.338;2023-09-18T09:43:26;9.45;;;0.93;;
82977;SDS011;72778;49.978;8.338;2023-09-18T09:45:58;8.38;;;0.93;;
82977;SDS011;72778;49.978;8.338;2023-09-18T09:48:24;15.95;;;1.20;;
82977;SDS011;72778;49.978;8.338;2023-09-18T09:50:51;18.48;;;1.00;;
82977;SDS011;72778;49.978;8.338;2023-09-18T09:53:18;14.88;;;1.08;;
82977;SDS011;72778;49.978;8.338;2023-09-18T09:55:44;14.55;;;1.23;;
82977;SDS011;72778;49.978;8.338;2023-09-18T09:58:11;10.23;;;1.08;;
82977;SDS011;72778;49.978;8.338;2023-09-18T10:00:40;11.75;;;0.88;;
82977;SDS011;72778;49.978;8.338;2023-09-18T10:03:11;9.07;;;0.80;;
82977;SDS011;72778;49.978;8.338;2023-09-18T10:05:38;14.00;;;1.00;;
82977;SDS011;72778;49.978;8.338;2023-09-18T10:10:31;9.15;;;0.70;;
82977;SDS011;72778;49.978;8.338;2023-09-18T10:13:00;8.82;;;0.70;;
82977;SDS011;72778;49.978;8.338;2023-09-18T10:15:26;9.95;;;1.05;;
82977;SDS011;72778;49.978;8.338;2023-09-18T10:17:55;8.23;;;1.02;;
82977;SDS011;72778;49.978;8.338;2023-09-18T10:20:24;7.95;;;0.60;;
82977;SDS011;72778;49.978;8.338;2023-09-18T10:22:53;9.80;;;0.75;;
82977;SDS011;72778;49.978;8.338;2023-09-18T10:25:29;7.57;;;0.70;;
82977;SDS011;72778;49.978;8.338;2023-09-18T10:27:57;16.77;;;1.20;;
82977;SDS011;72778;49.978;8.338;2023-09-18T10:30:26;9.55;;;0.70;;
82977;SDS011;72778;49.978;8.338;2023-09-18T10:32:52;7.30;;;0.75;;
82977;SDS011;72778;49.978;8.338;2023-09-18T10:35:19;6.30;;;0.55;;
82977;SDS011;72778;49.978;8.338;2023-09-18T10:37:46;4.45;;;0.50;;
82977;SDS011;72778;49.978;8.338;2023-09-18T10:40:12;8.52;;;0.43;;
82977;SDS011;72778;49.978;8.338;2023-09-18T10:45:04;6.75;;;0.60;;
82977;SDS011;72778;49.978;8.338;2023-09-18T10:47:31;3.90;;;0.47;;
82977;SDS011;72778;49.978;8.338;2023-09-18T10:49:58;7.20;;;0.60;;
82977;SDS011;72778;49.978;8.338;2023-09-18T10:52:23;8.40;;;0.68;;
82977;SDS011;72778;49.978;8.338;2023-09-18T10:54:50;6.30;;;0.50;;
82977;SDS011;72778;49.978;8.338;2023-09-18T10:57:16;7.50;;;0.70;;
82977;SDS011;72778;49.978;8.338;2023-09-18T10:59:45;7.28;;;0.68;;
82977;SDS011;72778;49.978;8.338;2023-09-18T11:02:15;8.02;;;0.70;;
82977;SDS011;72778;49.978;8.338;2023-09-18T11:04:41;7.32;;;0.70;;
82977;SDS011;72778;49.978;8.338;2023-09-18T11:07:07;4.45;;;0.60;;
82977;SDS011;72778;49.978;8.338;2023-09-18T11:12:03;4.70;;;0.50;;
82977;SDS011;72778;49.978;8.338;2023-09-18T11:20:01;10.25;;;0.98;;
82977;SDS011;72778;49.978;8.338;2023-09-18T11:22:29;10.95;;;0.80;;
82977;SDS011;72778;49.978;8.338;2023-09-18T11:25:07;8.77;;;0.70;;
82977;SDS011;72778;49.978;8.338;2023-09-18T11:27:53;9.75;;;0.68;;
82977;SDS011;72778;49.978;8.338;2023-09-18T11:30:20;8.00;;;0.60;;
82977;SDS011;72778;49.978;8.338;2023-09-18T11:32:46;6.57;;;0.57;;
82977;SDS011;72778;49.978;8.338;2023-09-18T11:35:12;9.43;;;0.70;;
82977;SDS011;72778;49.978;8.338;2023-09-18T11:37:42;4.35;;;0.55;;
82977;SDS011;72778;49.978;8.338;2023-09-18T11:40:26;9.27;;;0.80;;
82977;SDS011;72778;49.978;8.338;2023-09-18T11:43:18;5.53;;;0.70;;
82977;SDS011;72778;49.978;8.338;2023-09-18T11:45:43;14.30;;;0.95;;
82977;SDS011;72778;49.978;8.338;2023-09-18T11:48:09;8.45;;;0.70;;
82977;SDS011;72778;49.978;8.338;2023-09-18T11:50:37;11.63;;;0.65;;
82977;SDS011;72778;49.978;8.338;2023-09-18T11:53:04;11.75;;;0.82;;
82977;SDS011;72778;49.978;8.338;2023-09-18T11:55:31;8.75;;;0.70;;
82977;SDS011;72778;49.978;8.338;2023-09-18T11:57:57;10.38;;;0.90;;
82977;SDS011;72778;49.978;8.338;2023-09-18T12:00:26;12.02;;;0.60;;
82977;SDS011;72778;49.978;8.338;2023-09-18T12:02:54;18.75;;;0.90;;
82977;SDS011;72778;49.978;8.338;2023-09-18T12:05:20;8.77;;;0.63;;
82977;SDS011;72778;49.978;8.338;2023-09-18T12:07:51;7.55;;;0.50;;
82977;SDS011;72778;49.978;8.338;2023-09-18T12:10:18;14.40;;;0.95;;
82977;SDS011;72778;49.978;8.338;2023-09-18T12:12:45;11.02;;;0.90;;
82977;SDS011;72778;49.978;8.338;2023-09-18T12:15:12;10.55;;;0.88;;
82977;SDS011;72778;49.978;8.338;2023-09-18T12:17:40;8.35;;;0.73;;
82977;SDS011;72778;49.978;8.338;2023-09-18T12:20:06;7.15;;;0.80;;
82977;SDS011;72778;49.978;8.338;2023-09-18T12:22:32;7.50;;;1.00;;
82977;SDS011;72778;49.978;8.338;2023-09-18T12:25:34;10.52;;;0.82;;
82977;SDS011;72778;49.978;8.338;2023-09-18T12:27:54;6.97;;;0.52;;
82977;SDS011;72778;49.978;8.338;2023-09-18T12:30:20;6.20;;;0.90;;
82977;SDS011;72778;49.978;8.338;2023-09-18T12:32:47;11.13;;;0.75;;
82977;SDS011;72778;49.978;8.338;2023-09-18T12:35:13;8.75;;;0.77;;
82977;SDS011;72778;49.978;8.338;2023-09-18T12:37:40;9.95;;;0.80;;
82977;SDS011;72778;49.978;8.338;2023-09-18T12:40:06;7.55;;;0.70;;
82977;SDS011;72778;49.978;8.338;2023-09-18T12:42:39;4.32;;;0.45;;
82977;SDS011;72778;49.978;8.338;2023-09-18T12:45:06;5.53;;;0.43;;
82977;SDS011;72778;49.978;8.338;2023-09-18T12:47:33;5.63;;;0.60;;
82977;SDS011;72778;49.978;8.338;2023-09-18T12:50:05;7.13;;;0.60;;
82977;SDS011;72778;49.978;8.338;2023-09-18T12:52:36;10.57;;;0.93;;
82977;SDS011;72778;49.978;8.338;2023-09-18T12:55:02;6.72;;;0.70;;
82977;SDS011;72778;49.978;8.338;2023-09-18T12:57:31;5.55;;;0.52;;
82977;SDS011;72778;49.978;8.338;2023-09-18T12:59:57;5.07;;;0.52;;
82977;SDS011;72778;49.978;8.338;2023-09-18T13:02:23;8.63;;;0.43;;
82977;SDS011;72778;49.978;8.338;2023-09-18T13:04:52;4.28;;;0.68;;
82977;SDS011;72778;49.978;8.338;2023-09-18T13:07:18;6.97;;;0.63;;
82977;SDS011;72778;49.978;8.338;2023-09-18T13:10:03;7.13;;;0.52;;
82977;SDS011;72778;49.978;8.338;2023-09-18T13:12:45;7.03;;;0.68;;
82977;SDS011;72778;49.978;8.338;2023-09-18T13:15:12;5.78;;;0.50;;
82977;SDS011;72778;49.978;8.338;2023-09-18T13:17:42;6.35;;;0.70;;
82977;SDS011;72778;49.978;8.338;2023-09-18T13:20:13;8.73;;;0.75;;
82977;SDS011;72778;49.978;8.338;2023-09-18T13:22:40;4.47;;;0.50;;
82977;SDS011;72778;49.978;8.338;2023-09-18T13:25:09;4.50;;;0.30;;
82977;SDS011;72778;49.978;8.338;2023-09-18T13:27:36;7.70;;;0.73;;
82977;SDS011;72778;49.978;8.338;2023-09-18T13:30:02;3.78;;;0.50;;
82977;SDS011;72778;49.978;8.338;2023-09-18T13:32:32;7.28;;;0.60;;
82977;SDS011;72778;49.978;8.338;2023-09-18T13:34:58;4.28;;;0.45;;
82977;SDS011;72778;49.978;8.338;2023-09-18T13:37:24;5.78;;;0.73;;
82977;SDS011;72778;49.978;8.338;2023-09-18T13:39:52;4.40;;;0.52;;
82977;SDS011;72778;49.978;8.338;2023-09-18T13:42:18;4.05;;;0.45;;
82977;SDS011;72778;49.978;8.338;2023-09-18T13:44:43;5.15;;;0.65;;
82977;SDS011;72778;49.978;8.338;2023-09-18T13:47:11;5.45;;;0.60;;
82977;SDS011;72778;49.978;8.338;2023-09-18T13:52:04;6.05;;;0.52;;
82977;SDS011;72778;49.978;8.338;2023-09-18T13:54:30;3.35;;;0.50;;
82977;SDS011;72778;49.978;8.338;2023-09-18T13:56:56;4.57;;;0.65;;
82977;SDS011;72778;49.978;8.338;2023-09-18T13:59:22;4.88;;;0.60;;
82977;SDS011;72778;49.978;8.338;2023-09-18T14:01:48;5.82;;;0.70;;
82977;SDS011;72778;49.978;8.338;2023-09-18T14:04:14;4.15;;;0.43;;
82977;SDS011;72778;49.978;8.338;2023-09-18T14:06:40;4.35;;;0.47;;
82977;SDS011;72778;49.978;8.338;2023-09-18T14:09:07;4.65;;;0.70;;
82977;SDS011;72778;49.978;8.338;2023-09-18T14:11:35;2.72;;;0.43;;
82977;SDS011;72778;49.978;8.338;2023-09-18T14:14:03;5.25;;;0.50;;
82977;SDS011;72778;49.978;8.338;2023-09-18T14:16:29;6.60;;;0.70;;
82977;SDS011;72778;49.978;8.338;2023-09-18T14:18:58;7.45;;;0.50;;
82977;SDS011;72778;49.978;8.338;2023-09-18T14:21:24;5.88;;;0.47;;
82977;SDS011;72778;49.978;8.338;2023-09-18T14:23:55;10.48;;;0.60;;
82977;SDS011;72778;49.978;8.338;2023-09-18T14:26:21;6.10;;;0.43;;
82977;SDS011;72778;49.978;8.338;2023-09-18T14:28:47;4.97;;;0.52;;
82977;SDS011;72778;49.978;8.338;2023-09-18T14:31:13;6.25;;;0.60;;
82977;SDS011;72778;49.978;8.338;2023-09-18T14:33:39;5.63;;;0.60;;
82977;SDS011;72778;49.978;8.338;2023-09-18T14:36:05;7.60;;;0.73;;
82977;SDS011;72778;49.978;8.338;2023-09-18T14:40:57;3.72;;;0.43;;
82977;SDS011;72778;49.978;8.338;2023-09-18T14:43:27;7.35;;;0.50;;
82977;SDS011;72778;49.978;8.338;2023-09-18T14:45:53;10.82;;;0.80;;
82977;SDS011;72778;49.978;8.338;2023-09-18T14:48:22;9.98;;;0.95;;
82977;SDS011;72778;49.978;8.338;2023-09-18T14:50:54;9.73;;;1.02;;
82977;SDS011;72778;49.978;8.338;2023-09-18T14:53:20;5.00;;;0.52;;
82977;SDS011;72778;49.978;8.338;2023-09-18T14:58:12;4.85;;;0.63;;
82977;SDS011;72778;49.978;8.338;2023-09-18T15:00:38;8.95;;;0.85;;
82977;SDS011;72778;49.978;8.338;2023-09-18T15:03:04;13.50;;;1.10;;
82977;SDS011;72778;49.978;8.338;2023-09-18T15:05:30;9.07;;;1.02;;
82977;SDS011;72778;49.978;8.338;2023-09-18T15:07:56;10.82;;;1.27;;
82977;SDS011;72778;49.978;8.338;2023-09-18T15:10:22;9.77;;;0.65;;
82977;SDS011;72778;49.978;8.338;2023-09-18T15:12:47;8.13;;;0.80;;
82977;SDS011;72778;49.978;8.338;2023-09-18T15:15:13;10.75;;;0.90;;
82977;SDS011;72778;49.978;8.338;2023-09-18T15:17:40;10.02;;;0.98;;
82977;SDS011;72778;49.978;8.338;2023-09-18T15:22:31;6.90;;;0.73;;
82977;SDS011;72778;49.978;8.338;2023-09-18T15:24:57;5.22;;;0.63;;
82977;SDS011;72778;49.978;8.338;2023-09-18T15:27:23;8.07;;;1.13;;
82977;SDS011;72778;49.978;8.338;2023-09-18T15:29:50;6.22;;;0.88;;
82977;SDS011;72778;49.978;8.338;2023-09-18T15:32:18;9.27;;;1.00;;
82977;SDS011;72778;49.978;8.338;2023-09-18T15:34:45;10.52;;;1.10;;
82977;SDS011;72778;49.978;8.338;2023-09-18T15:37:11;10.60;;;0.90;;